createdAt,value
2019-02-02T00:01:59.411Z,5.83
2019-02-02T00:05:06.942Z,5.10
2019-02-02T00:08:15.346Z,5.63
2019-02-02T00:11:22.615Z,4.87
2019-02-02T00:14:29.913Z,4.73
2019-02-02T00:17:37.129Z,5.63
2019-02-02T00:20:44.612Z,5.73
2019-02-02T00:23:51.814Z,6.43
2019-02-02T00:26:59.253Z,7.63
2019-02-02T00:30:16.128Z,5.10
2019-02-02T00:33:32.678Z,6.43
2019-02-02T00:36:49.437Z,5.53
2019-02-02T00:39:56.683Z,4.47
2019-02-02T00:43:04.165Z,6.80
2019-02-02T00:46:20.661Z,5.03
2019-02-02T00:49:27.862Z,5.43
2019-02-02T00:52:44.669Z,5.57
2019-02-02T00:56:01.410Z,7.00
2019-02-02T00:59:18.071Z,5.47
2019-02-02T01:02:25.280Z,6.47
2019-02-02T01:05:42.138Z,5.33
2019-02-02T01:09:04.062Z,4.17
2019-02-02T01:12:23.950Z,5.25
2019-02-02T01:15:40.581Z,8.53
2019-02-02T01:18:47.795Z,6.80
2019-02-02T01:21:55.244Z,5.60
2019-02-02T01:25:11.897Z,6.10
2019-02-02T01:28:18.870Z,6.70
2019-02-02T01:31:26.068Z,5.87
2019-02-02T01:34:33.307Z,8.20
2019-02-02T01:37:40.933Z,6.80
2019-02-02T01:40:57.507Z,6.57
2019-02-02T01:44:14.161Z,6.40
2019-02-02T01:47:21.358Z,7.13
2019-02-02T01:50:28.763Z,7.97
2019-02-02T01:53:45.245Z,8.37
2019-02-02T01:57:02.152Z,6.73
2019-02-02T02:00:21.372Z,7.30
2019-02-02T02:03:29.554Z,6.70
2019-02-02T02:06:46.006Z,7.97
2019-02-02T02:09:53.220Z,7.10
2019-02-02T02:13:00.355Z,7.37
2019-02-02T02:16:07.604Z,4.73
2019-02-02T02:19:24.418Z,6.90
2019-02-02T02:22:41.627Z,7.40
2019-02-02T02:25:57.957Z,7.60
2019-02-02T02:29:14.628Z,5.60
2019-02-02T02:32:21.759Z,6.33
2019-02-02T02:35:28.978Z,8.03
2019-02-02T02:38:36.226Z,6.67
2019-02-02T02:41:43.457Z,6.33
2019-02-02T02:45:00.411Z,6.40
2019-02-02T02:48:16.921Z,5.70
2019-02-02T02:51:24.068Z,8.47
2019-02-02T02:54:31.355Z,7.30
2019-02-02T02:57:48.298Z,6.80
2019-02-02T03:01:05.158Z,5.10
2019-02-02T03:04:21.770Z,6.40
2019-02-02T03:07:38.299Z,6.63
2019-02-02T03:10:45.532Z,8.00
2019-02-02T03:13:52.839Z,5.63
2019-02-02T03:17:00.055Z,7.23
2019-02-02T03:20:16.937Z,6.90
2019-02-02T03:23:33.744Z,6.20
2019-02-02T03:26:56.288Z,7.60
2019-02-02T03:30:15.187Z,7.17
2019-02-02T03:33:22.437Z,6.07
2019-02-02T03:36:29.623Z,6.23
2019-02-02T03:39:36.850Z,7.63
2019-02-02T03:42:53.234Z,7.10
2019-02-02T03:46:09.781Z,8.27
2019-02-02T03:49:16.996Z,7.40
2019-02-02T03:52:24.298Z,9.53
2019-02-02T03:55:40.939Z,8.83
2019-02-02T03:59:06.031Z,6.37
2019-02-02T04:02:15.952Z,6.97
2019-02-02T04:05:25.701Z,5.10
2019-02-02T04:08:32.915Z,7.50
2019-02-02T04:11:43.306Z,8.03
2019-02-02T04:14:49.198Z,5.83
2019-02-02T04:17:56.565Z,8.47
2019-02-02T04:21:03.956Z,8.17
2019-02-02T04:24:11.186Z,6.27
2019-02-02T04:27:18.453Z,7.67
2019-02-02T04:30:35.209Z,7.47
2019-02-02T04:33:51.971Z,7.77
2019-02-02T04:36:59.242Z,10.03
2019-02-02T04:40:16.148Z,8.17
2019-02-02T04:43:32.606Z,7.40
2019-02-02T04:46:49.505Z,8.83
2019-02-02T04:49:56.689Z,6.97
2019-02-02T04:53:13.374Z,9.00
2019-02-02T04:56:20.524Z,8.73
2019-02-02T04:59:29.395Z,7.77
2019-02-02T05:02:35.867Z,10.03
2019-02-02T05:05:43.139Z,9.93
2019-02-02T05:08:50.354Z,6.20
2019-02-02T05:11:57.643Z,8.63
2019-02-02T05:15:05.882Z,7.50
2019-02-02T05:18:13.186Z,8.00
2019-02-02T05:21:20.418Z,7.70
2019-02-02T05:24:27.554Z,8.63
2019-02-02T05:27:34.772Z,6.80
2019-02-02T05:30:41.994Z,8.47
2019-02-02T05:33:49.132Z,8.17
2019-02-02T05:36:56.479Z,8.57
2019-02-02T05:40:04.276Z,7.87
2019-02-02T05:43:11.598Z,6.77
2019-02-02T05:46:18.921Z,7.00
2019-02-02T05:49:26.336Z,8.80
2019-02-02T05:52:33.480Z,8.27
2019-02-02T05:55:50.230Z,7.63
2019-02-02T05:59:06.948Z,7.57
2019-02-02T06:02:14.159Z,7.90
2019-02-02T06:05:21.372Z,7.30
2019-02-02T06:08:28.580Z,7.77
2019-02-02T06:11:35.878Z,7.47
2019-02-02T06:14:52.546Z,7.33
2019-02-02T06:18:09.367Z,7.17
2019-02-02T06:21:16.630Z,8.03
2019-02-02T06:24:33.169Z,6.07
2019-02-02T06:27:40.459Z,8.53
2019-02-02T06:30:47.690Z,8.60
2019-02-02T06:34:04.697Z,5.80
2019-02-02T06:37:21.073Z,7.53
2019-02-02T06:40:28.201Z,7.57
2019-02-02T06:43:35.527Z,8.87
2019-02-02T06:46:43.874Z,7.43
2019-02-02T06:49:51.247Z,8.30
2019-02-02T06:52:59.159Z,7.57
2019-02-02T06:56:15.613Z,6.43
2019-02-02T06:59:32.192Z,8.03
2019-02-02T07:02:39.323Z,8.63
2019-02-02T07:05:46.548Z,7.73
2019-02-02T07:08:53.779Z,9.00
2019-02-02T07:12:01.071Z,7.43
2019-02-02T07:15:18.582Z,7.33
2019-02-02T07:18:25.739Z,7.30
2019-02-02T07:21:32.883Z,9.17
2019-02-02T07:24:40.296Z,6.67
2019-02-02T07:27:47.470Z,7.87
2019-02-02T07:30:54.568Z,8.37
2019-02-02T07:34:01.915Z,9.23
2019-02-02T07:37:09.093Z,6.83
2019-02-02T07:40:16.827Z,8.33
2019-02-02T07:43:23.939Z,7.77
2019-02-02T07:46:31.158Z,8.73
2019-02-02T07:49:38.747Z,6.97
2019-02-02T07:52:55.649Z,9.40
2019-02-02T07:56:12.149Z,8.23
2019-02-02T07:59:19.295Z,8.13
2019-02-02T08:02:26.526Z,8.63
2019-02-02T08:05:33.874Z,9.90
2019-02-02T08:08:54.654Z,6.27
2019-02-02T08:12:01.932Z,7.00
2019-02-02T08:15:21.161Z,5.90
2019-02-02T08:18:28.475Z,8.63
2019-02-02T08:21:35.782Z,8.93
2019-02-02T08:24:43.063Z,8.73
2019-02-02T08:27:50.410Z,8.07
2019-02-02T08:30:57.689Z,7.47
2019-02-02T08:34:05.155Z,6.67
2019-02-02T08:37:21.777Z,7.20
2019-02-02T08:40:29.016Z,9.73
2019-02-02T08:43:36.199Z,9.20
2019-02-02T08:46:43.462Z,8.50
2019-02-02T08:50:00.237Z,7.83
2019-02-02T08:53:16.825Z,9.03
2019-02-02T08:56:24.017Z,8.93
2019-02-02T08:59:31.326Z,7.37
2019-02-02T09:02:48.266Z,8.83
2019-02-02T09:06:04.983Z,7.10
2019-02-02T09:09:21.480Z,7.53
2019-02-02T09:12:28.856Z,8.27
2019-02-02T09:15:45.571Z,8.00
2019-02-02T09:19:08.193Z,9.43
2019-02-02T09:22:15.486Z,8.53
2019-02-02T09:25:22.712Z,11.10
2019-02-02T09:28:29.871Z,8.00
2019-02-02T09:31:37.079Z,8.43
2019-02-02T09:34:53.866Z,11.07
2019-02-02T09:38:12.168Z,9.07
2019-02-02T09:41:20.089Z,11.13
2019-02-02T09:44:27.402Z,7.83
2019-02-02T09:47:34.715Z,9.37
2019-02-02T09:50:42.134Z,8.97
2019-02-02T09:53:49.486Z,9.70
2019-02-02T09:56:56.684Z,9.63
2019-02-02T10:00:04.816Z,10.77
2019-02-02T10:03:12.412Z,10.97
2019-02-02T10:06:19.611Z,9.40
2019-02-02T10:09:26.898Z,9.47
2019-02-02T10:12:34.112Z,9.10
2019-02-02T10:15:39.794Z,11.30
2019-02-02T10:18:47.069Z,10.27
2019-02-02T10:21:54.308Z,10.37
2019-02-02T10:25:01.621Z,10.13
2019-02-02T10:28:10.197Z,10.50
2019-02-02T10:31:17.337Z,8.90
2019-02-02T10:34:24.727Z,11.03
2019-02-02T10:37:31.956Z,9.37
2019-02-02T10:40:39.238Z,9.77
2019-02-02T10:43:46.452Z,11.70
2019-02-02T10:46:53.892Z,10.13
2019-02-02T10:50:12.190Z,11.27
2019-02-02T10:53:19.231Z,8.43
2019-02-02T10:56:26.375Z,10.57
2019-02-02T10:59:33.471Z,9.50
2019-02-02T11:02:40.596Z,8.80
2019-02-02T11:05:47.934Z,11.40
2019-02-02T11:08:55.363Z,9.10
2019-02-02T11:12:02.457Z,10.87
2019-02-02T11:15:19.967Z,9.53
2019-02-02T11:18:27.110Z,10.93
2019-02-02T11:21:34.381Z,9.10
2019-02-02T11:24:41.601Z,11.53
2019-02-02T11:27:48.794Z,9.73
2019-02-02T11:30:56.005Z,9.17
2019-02-02T11:34:03.289Z,10.87
2019-02-02T11:37:10.590Z,10.57
2019-02-02T11:40:23.477Z,10.40
2019-02-02T11:43:40.106Z,10.80
2019-02-02T11:46:47.454Z,9.17
2019-02-02T11:49:55.099Z,9.47
2019-02-02T11:53:02.283Z,9.37
2019-02-02T11:56:09.558Z,9.47
2019-02-02T11:59:17.137Z,9.83
2019-02-02T12:02:24.262Z,9.83
2019-02-02T12:05:31.598Z,9.57
2019-02-02T12:08:38.835Z,12.50
2019-02-02T12:11:45.977Z,8.73
2019-02-02T12:14:53.366Z,11.27
2019-02-02T12:18:00.876Z,9.20
2019-02-02T12:21:08.074Z,9.67
2019-02-02T12:24:16.363Z,7.90
2019-02-02T12:27:23.568Z,10.60
2019-02-02T12:30:32.604Z,11.00
2019-02-02T12:33:39.756Z,11.83
2019-02-02T12:36:47.074Z,9.57
2019-02-02T12:39:54.203Z,8.03
2019-02-02T12:43:01.416Z,10.53
2019-02-02T12:46:08.887Z,9.80
2019-02-02T12:49:16.026Z,12.17
2019-02-02T12:52:25.378Z,9.17
2019-02-02T12:55:32.194Z,10.90
2019-02-02T12:58:50.180Z,8.90
2019-02-02T13:01:57.537Z,10.87
2019-02-02T13:05:05.503Z,9.90
2019-02-02T13:08:12.716Z,9.57
2019-02-02T13:11:20.027Z,7.87
2019-02-02T13:14:27.168Z,7.57
2019-02-02T13:17:34.482Z,8.47
2019-02-02T13:20:41.885Z,9.47
2019-02-02T13:23:49.142Z,8.00
2019-02-02T13:26:56.385Z,9.33
2019-02-02T13:30:04.250Z,9.37
2019-02-02T13:33:20.769Z,9.87
2019-02-02T13:36:28.064Z,9.37
2019-02-02T13:39:35.190Z,7.00
2019-02-02T13:42:42.437Z,8.50
2019-02-02T13:45:51.357Z,8.87
2019-02-02T13:49:08.251Z,8.10
2019-02-02T13:52:24.755Z,10.50
2019-02-02T13:55:41.646Z,10.70
2019-02-02T13:59:04.411Z,10.33
2019-02-02T14:02:21.061Z,8.87
2019-02-02T14:05:38.476Z,7.23
2019-02-02T14:08:45.610Z,8.53
2019-02-02T14:11:52.984Z,9.13
2019-02-02T14:15:00.177Z,10.10
2019-02-02T14:18:07.451Z,8.20
2019-02-02T14:21:14.714Z,7.20
2019-02-02T14:24:21.905Z,6.90
2019-02-02T14:27:29.111Z,7.63
2019-02-02T14:30:36.239Z,9.17
2019-02-02T14:33:43.368Z,7.77
2019-02-02T14:36:50.597Z,7.13
2019-02-02T14:39:59.224Z,9.43
2019-02-02T14:43:06.457Z,8.77
2019-02-02T14:46:13.678Z,7.73
2019-02-02T14:49:20.975Z,9.57
2019-02-02T14:52:28.177Z,11.17
2019-02-02T14:55:35.406Z,11.40
2019-02-02T14:58:42.720Z,10.77
2019-02-02T15:01:49.932Z,8.83
2019-02-02T15:04:57.028Z,6.53
2019-02-02T15:08:04.427Z,7.53
2019-02-02T15:11:11.545Z,7.97
2019-02-02T15:14:18.845Z,8.37
2019-02-02T15:17:25.994Z,7.80
2019-02-02T15:20:37.098Z,8.50
2019-02-02T15:23:53.705Z,8.80
2019-02-02T15:27:01.305Z,7.20
2019-02-02T15:30:18.877Z,8.77
2019-02-02T15:33:37.204Z,8.17
2019-02-02T15:36:34.763Z,7.30
2019-02-02T15:39:41.904Z,6.07
2019-02-02T15:42:49.026Z,7.27
2019-02-02T15:45:56.412Z,8.53
2019-02-02T15:49:03.686Z,10.77
2019-02-02T15:52:11.024Z,8.77
2019-02-02T15:55:19.965Z,8.40
2019-02-02T15:58:27.157Z,7.13
2019-02-02T16:01:34.270Z,6.90
2019-02-02T16:04:41.470Z,7.63
2019-02-02T16:07:48.910Z,7.80
2019-02-02T16:10:56.119Z,8.33
2019-02-02T16:14:03.245Z,6.70
2019-02-02T16:17:20.709Z,7.43
2019-02-02T16:20:30.418Z,7.00
2019-02-02T16:23:37.701Z,7.23
2019-02-02T16:26:44.818Z,5.60
2019-02-02T16:29:51.937Z,5.33
2019-02-02T16:32:59.156Z,7.87
2019-02-02T16:36:06.368Z,6.47
2019-02-02T16:39:13.563Z,7.73
2019-02-02T16:42:20.683Z,6.90
2019-02-02T16:45:29.134Z,8.10
2019-02-02T16:48:35.108Z,6.93
2019-02-02T16:51:42.298Z,7.10
2019-02-02T16:54:49.565Z,6.10
2019-02-02T16:57:56.760Z,6.27
2019-02-02T17:01:04.050Z,8.07
2019-02-02T17:04:15.878Z,8.47
2019-02-02T17:07:20.073Z,10.53
2019-02-02T17:10:32.385Z,9.67
2019-02-02T17:13:48.794Z,8.47
2019-02-02T17:16:56.145Z,6.37
2019-02-02T17:20:15.370Z,8.03
2019-02-02T17:23:22.567Z,7.33
2019-02-02T17:26:29.793Z,8.27
2019-02-02T17:29:36.923Z,8.77
2019-02-02T17:32:44.287Z,6.87
2019-02-02T17:35:51.852Z,8.70
2019-02-02T17:38:59.046Z,9.70
2019-02-02T17:42:06.345Z,7.63
2019-02-02T17:45:15.077Z,7.67
2019-02-02T17:48:22.305Z,8.27
2019-02-02T17:51:29.432Z,8.27
2019-02-02T17:54:36.555Z,7.27
2019-02-02T17:57:43.850Z,6.00
2019-02-02T18:00:53.699Z,6.73
2019-02-02T18:04:00.866Z,10.53
2019-02-02T18:07:08.076Z,10.00
2019-02-02T18:10:15.809Z,5.57
2019-02-02T18:13:23.108Z,5.47
2019-02-02T18:16:30.336Z,7.27
2019-02-02T18:19:37.473Z,8.17
2019-02-02T18:22:44.987Z,8.13
2019-02-02T18:26:01.794Z,7.50
2019-02-02T18:29:19.113Z,7.67
2019-02-02T18:32:35.807Z,7.07
2019-02-02T18:35:43.013Z,7.33
2019-02-02T18:38:59.607Z,5.13
2019-02-02T18:42:06.747Z,8.10
2019-02-02T18:45:19.639Z,7.90
2019-02-02T18:48:26.939Z,5.17
2019-02-02T18:51:34.135Z,7.00
2019-02-02T18:54:41.572Z,8.23
2019-02-02T18:57:47.319Z,7.87
2019-02-02T19:00:54.460Z,7.47
2019-02-02T19:04:01.787Z,7.90
2019-02-02T19:07:09.017Z,7.43
2019-02-02T19:10:24.510Z,7.47
2019-02-02T19:13:31.613Z,7.10
2019-02-02T19:16:38.756Z,6.33
2019-02-02T19:19:46.035Z,8.50
2019-02-02T19:22:53.275Z,7.17
2019-02-02T19:26:00.472Z,6.50
2019-02-02T19:29:07.682Z,6.60
2019-02-02T19:32:14.807Z,7.40
2019-02-02T19:35:22.005Z,5.30
2019-02-02T19:38:29.138Z,7.87
2019-02-02T19:41:36.762Z,8.93
2019-02-02T19:44:53.331Z,8.80
2019-02-02T19:48:09.985Z,7.87
2019-02-02T19:51:17.216Z,8.47
2019-02-02T19:54:24.874Z,8.53
2019-02-02T19:57:32.175Z,6.43
2019-02-02T20:00:39.492Z,7.30
2019-02-02T20:03:46.623Z,6.53
2019-02-02T20:06:53.756Z,6.00
2019-02-02T20:10:12.345Z,8.07
2019-02-02T20:13:19.731Z,7.17
2019-02-02T20:16:26.860Z,6.80
2019-02-02T20:19:33.992Z,8.13
2019-02-02T20:22:41.248Z,6.27
2019-02-02T20:25:48.445Z,8.40
2019-02-02T20:28:55.832Z,8.83
2019-02-02T20:32:03.064Z,7.93
2019-02-02T20:35:11.087Z,8.07
2019-02-02T20:38:27.602Z,6.83
2019-02-02T20:41:44.333Z,7.67
2019-02-02T20:45:01.021Z,7.27
2019-02-02T20:48:08.255Z,8.00
2019-02-02T20:51:15.569Z,6.97
2019-02-02T20:54:22.851Z,6.40
2019-02-02T20:57:39.388Z,7.23
2019-02-02T21:00:56.182Z,6.17
2019-02-02T21:04:03.661Z,6.77
2019-02-02T21:07:20.123Z,8.03
2019-02-02T21:10:27.516Z,8.27
2019-02-02T21:13:44.069Z,5.73
2019-02-02T21:16:51.312Z,4.73
2019-02-02T21:19:58.496Z,6.43
2019-02-02T21:23:05.746Z,5.67
2019-02-02T21:26:12.881Z,5.93
2019-02-02T21:29:20.106Z,7.20
2019-02-02T21:32:27.258Z,8.73
2019-02-02T21:35:34.385Z,7.57
2019-02-02T21:38:41.656Z,7.27
2019-02-02T21:41:49.246Z,6.40
2019-02-02T21:45:07.104Z,6.00
2019-02-02T21:48:14.414Z,7.73
2019-02-02T21:51:21.623Z,7.27
2019-02-02T21:54:28.789Z,6.33
2019-02-02T21:57:45.862Z,6.53
2019-02-02T22:01:02.525Z,5.67
2019-02-02T22:04:25.213Z,6.43
2019-02-02T22:07:42.080Z,5.63
2019-02-02T22:10:58.761Z,4.67
2019-02-02T22:14:06.176Z,6.03
2019-02-02T22:17:22.750Z,6.20
2019-02-02T22:20:30.025Z,6.03
2019-02-02T22:23:37.289Z,7.27
2019-02-02T22:26:53.950Z,8.10
2019-02-02T22:30:01.170Z,4.73
2019-02-02T22:33:18.130Z,4.70
2019-02-02T22:36:34.686Z,5.37
2019-02-02T22:39:51.534Z,4.73
2019-02-02T22:43:08.359Z,3.77
2019-02-02T22:46:27.510Z,5.30
2019-02-02T22:49:44.274Z,6.93
2019-02-02T22:52:51.061Z,6.53
2019-02-02T22:55:58.188Z,5.57
2019-02-02T22:59:05.645Z,5.30
2019-02-02T23:02:23.102Z,6.33
2019-02-02T23:06:13.609Z,6.40
2019-02-02T23:10:03.336Z,5.40
2019-02-02T23:13:34.547Z,6.23
2019-02-02T23:16:41.728Z,5.47
2019-02-02T23:19:48.951Z,6.30
2019-02-02T23:23:05.817Z,6.73
2019-02-02T23:26:22.563Z,7.17
2019-02-02T23:29:39.373Z,5.47
2019-02-02T23:32:46.502Z,5.47
2019-02-02T23:35:55.753Z,5.50
2019-02-02T23:39:12.162Z,5.93
2019-02-02T23:42:28.833Z,6.07
2019-02-02T23:45:45.605Z,5.13
2019-02-02T23:49:02.360Z,4.83
2019-02-02T23:52:09.599Z,4.93
2019-02-02T23:55:17.169Z,7.43
2019-02-02T23:58:33.459Z,5.07
